Sonic Adventure (DX): Overall Rankings

Records: Times | Rings | Scores | Races | Bosses | Freestyle
Leaders: Times | Rings | Scores | Races | Bosses | Freestyle | Overall
Rank Player Percent Points Date
1 Sonicspeedruner 97.7% 392 06-25-19
2 Gamepro011 97.7% 394 06-25-19
3 DarkPolarNight 96.5% 616 06-25-19
4 Jawzun 92.9% 1251 06-25-19
5 Dashjump 91.4% 1515 06-25-19
6 DarkspinesSonic 89.3% 1877 06-25-19
7 Avento128bits 89.3% 1882 06-25-19
8 ike6252 89.1% 1927 06-25-19
9 F-Man 87.3% 2245 06-25-19
10 Coolfansonic 86.8% 2332 06-25-19
11 TheRealShadnic 84.8% 2686 06-25-19
12 HyperSonic7701 83.9% 2837 06-25-19
13 yoshifan 82.2% 3147 06-25-19
14 frankoredstrato 81.8% 3205 06-25-19
15 francisco 80.9% 3370 06-25-19
16 Marth 80.7% 3396 06-25-19
17 InferSaime 79.4% 3641 06-25-19
18 PfoSonic 78.9% 3719 06-25-19
19 Paragod 78.5% 3795 06-25-19
20 THC98 77.7% 3927 06-25-19
21 Stefan 75.3% 4365 06-25-19
22 RPGnutter 73.1% 4749 06-25-19
23 bertin 73.0% 4763 06-25-19
24 sonicam 71.0% 5125 06-25-19
25 Dekuboy 70.9% 5134 06-25-19
26 drminus 69.7% 5358 06-25-19
27 chaos shadow 68.9% 5489 06-25-19
28 chainchump 65.7% 6062 06-25-19
29 Combo 65.0% 6174 06-25-19
30 SkyLights 63.8% 6389 06-25-19
31 xXMegaManXx 62.2% 6676 06-25-19
32 Diamond 61.8% 6744 06-25-19
33 Auriman1 59.7% 7127 06-25-19
34 OmegaDJ 59.6% 7129 06-25-19
35 GerbilSoft 59.6% 7140 06-25-19
36 magnum12 58.8% 7271 06-25-19
37 Thorn 56.6% 7659 06-25-19
38 P1 Pause 56.4% 7701 06-25-19
39 mike89 55.3% 7893 06-25-19
40 Dave Cramer 53.4% 8231 06-25-19
41 Groudon199 53.4% 8236 06-25-19
42 Parax 52.9% 8314 06-25-19
43 Shadow Jacky 52.2% 8436 06-25-19
44 Zurggriff 47.7% 9243 06-25-19
45 Psymar 47.2% 9327 06-25-19
46 Arch 46.4% 9472 06-25-19
47 Niczur 46.2% 9499 06-25-19
48 Chao_Fan 45.5% 9636 06-25-19
49 mauserman 44.9% 9741 06-25-19
50 Quartz 44.3% 9837 06-25-19
51 teamblackarms 43.7% 9952 06-25-19
52 Psyknux 42.9% 10093 06-25-19
53 James_Bertolli 42.5% 10155 06-25-19
54 Cyan Ryan 42.4% 10180 06-25-19
55 NintenDan 42.1% 10223 06-25-19
56 Webber3000 41.5% 10341 06-25-19
57 Turbos 41.5% 10344 06-25-19
58 Ring Rush 41.3% 10370 06-25-19
59 Fr3nZy 41.1% 10403 06-25-19
60 Cream147 41.0% 10430 06-25-19
61 videogamemaster777 40.9% 10446 06-25-19
62 Siavash Tazari 40.8% 10468 06-25-19
63 buddychaos0415 40.3% 10556 06-25-19
64 SadisticMystic 39.8% 10640 06-25-19
65 ethmar 39.6% 10674 06-25-19
66 eggFL 38.8% 10806 06-25-19
67 Calfd 38.3% 10900 06-25-19
68 SB737 37.2% 11089 06-25-19
69 supersonic465 36.7% 11181 06-25-19
70 supersonicfan 36.1% 11286 06-25-19
71 FuzZerd 35.1% 11473 06-25-19
72 Aitamen 34.5% 11566 06-25-19
73 BigAL49 34.1% 11642 06-25-19
74 elecmouse101 34.1% 11646 06-25-19
75 danieldude 34.0% 11662 06-25-19
76 Austinf 33.6% 11739 06-25-19
77 metanightmare22 32.9% 11861 06-25-19
78 dabestgamer 32.4% 11938 06-25-19
79 MiStEr_ShAoLiN 32.3% 11965 06-25-19
80 Andrea Ritsu 31.6% 12089 06-25-19
81 itsPersonnal 31.5% 12112 06-25-19
82 WeegeeZV 31.3% 12146 06-25-19
83 Cybrax 30.7% 12248 06-25-19
84 Nim 30.7% 12255 06-25-19
85 JamminX42 30.4% 12303 06-25-19
86 SilvertheAlmighty 30.3% 12312 06-25-19
87 Mastakirby 30.1% 12354 06-25-19
88 VMU Player Banned 28.7% 12604 06-25-19
89 Omega Rafael Santos 28.2% 12691 06-25-19
90 Staf 27.9% 12734 06-25-19
91 The T 27.6% 12790 06-25-19
92 EngiNerd 27.4% 12836 06-25-19
93 lordmetalsonic 26.9% 12927 06-25-19
94 Hipertails12 26.7% 12949 06-25-19
95 welldooder64 26.3% 13023 06-25-19
96 GreatStar 26.1% 13053 06-25-19
97 The Great Lord Mick 25.9% 13088 06-25-19
98 Sondow 25.8% 13109 06-25-19
99 LinksDarkArrows 25.6% 13151 06-25-19
100 Skylace 24.8% 13289 06-25-19
101 a_moustache 24.0% 13438 06-25-19
102 Rolken 23.2% 13575 06-25-19
103 Xia 21.6% 13863 06-25-19
104 Spinballwizard 21.5% 13869 06-25-19
105 Kogen Player Banned 21.5% 13879 06-25-19
106 Don 21.2% 13923 06-25-19
107 CoEmpathy 21.2% 13934 06-25-19
108 f0rever_zer0 21.1% 13952 06-25-19
109 Game_Complete 21.1% 13953 06-25-19
110 Twilisailor 21.0% 13955 06-25-19
111 Miles9999 21.0% 13966 06-25-19
112 Cutiefox 20.9% 13982 06-25-19
113 andres430 20.2% 14104 06-25-19
114 Cruizer 20.0% 14133 06-25-19
115 iSonicKid2K 19.9% 14163 06-25-19
116 SADXTryHard 19.8% 14177 06-25-19
117 GarnetPrincess 19.2% 14280 06-25-19
118 N 19.2% 14281 06-25-19
119 AxlThunder 18.8% 14343 06-25-19
120 knuckles_sonic8 18.4% 14414 06-25-19
121 KinkyCadence 18.0% 14491 06-25-19
122 The Knuckles Chao 17.9% 14515 06-25-19
123 Team_Yoshi 17.7% 14538 06-25-19
124 Termon 17.7% 14549 06-25-19
125 LittleBigness 17.5% 14576 06-25-19
126 SonicWinDX 17.5% 14585 06-25-19
127 FoxBoy 17.3% 14616 06-25-19
128 Drakodan 16.7% 14717 06-25-19
129 Sonic Singularity 15.6% 14923 06-25-19
130 Pokemonmaster888 15.3% 14964 06-25-19
131 paulie9990 14.9% 15044 06-25-19
132 SilverSonic 14.3% 15144 06-25-19
133 MPit08 14.1% 15188 06-25-19
134 Mo Player Banned 13.9% 15217 06-25-19
135 koinu93 13.7% 15255 06-25-19
136 Cod4Scopes 13.5% 15297 06-25-19
137 Jerzia 13.3% 15332 06-25-19
138 HyperSonic64 13.2% 15340 06-25-19
139 Hunters13 13.1% 15357 06-25-19
140 booo95 13.0% 15369 06-25-19
141 Chawkk 13.0% 15379 06-25-19
142 SuperSonic101 12.8% 15413 06-25-19
143 Maxinfamily 12.7% 15428 06-25-19
144 R3FR4G 12.6% 15441 06-25-19
145 Kanimayo_Jp 12.4% 15482 06-25-19
146 PsyBorg 12.3% 15493 06-25-19
147 Flying Fox 12.3% 15506 06-25-19
148 BrokenArthritis 12.3% 15507 06-25-19
149 LilZero 12.2% 15511 06-25-19
150 Therio 11.9% 15575 06-25-19
151 sonicspeed 11.5% 15639 06-25-19
152 douglas 11.4% 15665 06-25-19
153 thewaytodawnnn 11.2% 15693 06-25-19
154 ModifiedMonkee 11.1% 15719 06-25-19
155 Matt_TY 11.1% 15721 06-25-19
156 SuperBlitzCraig 10.6% 15806 06-25-19
157 joecoolgames 10.6% 15810 06-25-19
158 Cooljay 10.5% 15815 06-25-19
159 SeaWolf 10.4% 15833 06-25-19
160 videogamer1014 10.2% 15877 06-25-19
161 AC-Tygo 9.9% 15927 06-25-19
162 welshmoose05 9.9% 15933 06-25-19
163 TFEC Headshot 9.7% 15967 06-25-19
164 crazy1993 9.6% 15971 06-25-19
165 OddCook 9.6% 15974 06-25-19
166 Mcshuggets 9.5% 15990 06-25-19
167 Mariobutch 9.4% 16008 06-25-19
168 Irregular Zero 9.1% 16058 06-25-19
169 niscool 9.1% 16067 06-25-19
170 nuckrieg 9.1% 16068 06-25-19
171 SonicAD 8.9% 16096 06-25-19
172 SirTobbii 8.7% 16134 06-25-19
173 Shadowthegreat 8.7% 16137 06-25-19
174 superjupi 8.7% 16139 06-25-19
175 Powerjohn25 8.5% 16173 06-25-19
176 SaviourDC 8.4% 16183 06-25-19
177 iarebored 8.4% 16187 06-25-19
178 sonamyfan666 8.4% 16190 06-25-19
179 SonicKnuckles 8.3% 16209 06-25-19
180 Werey 8.1% 16235 06-25-19
181 adf 7.9% 16273 06-25-19
182 Megaman EXE565 7.6% 16324 06-25-19
183 ArcticDragon 7.4% 16367 06-25-19
184 Platformer 7.4% 16370 06-25-19
185 Swift Hobo 7.2% 16402 06-25-19
186 FocusSight64 7.2% 16403 06-25-19
187 timpkmn89 7.2% 16404 06-25-19
188 Vicklaw 7.1% 16418 06-25-19
189 wheatrich 7.0% 16436 06-25-19
190 Rickyman48 7.0% 16441 06-25-19
191 Sm4sh 6.7% 16485 06-25-19
192 KitsuneYamaro 6.7% 16488 06-25-19
193 Triseena 6.5% 16519 06-25-19
194 Starlight Sable 6.4% 16544 06-25-19
195 CyberShadow 6.4% 16551 06-25-19
196 Destroyer121121 6.3% 16559 06-25-19
197 slade23 6.3% 16560 06-25-19
198 dShadow 6.2% 16572 06-25-19
199 IsisDazs 6.2% 16579 06-25-19
200 iden1 6.1% 16590 06-25-19
201 BlankTH 5.9% 16625 06-25-19
202 Badlex727 5.9% 16638 06-25-19
203 Monkeh 5.8% 16653 06-25-19
204 Richied 5.6% 16688 06-25-19
204 Swinkly 5.6% 16688 06-25-19
206 SonicU260 5.6% 16689 06-25-19
207 DaDude 5.5% 16695 06-25-19
208 Crispian 5.5% 16697 06-25-19
209 sonicd5 5.5% 16704 06-25-19
210 Zip 5.4% 16723 06-25-19
211 VeritasDL 5.2% 16750 06-25-19
212 tal39h 5.1% 16781 06-25-19
213 Kirbymon30 5.0% 16789 06-25-19
214 ALundstrom10 5.0% 16790 06-25-19
215 soniccoloursunleashed 4.8% 16827 06-25-19
216 Drflash55 4.7% 16839 06-25-19
217 Bass 4.6% 16858 06-25-19
218 neaolas 4.6% 16864 06-25-19
219 Yish 4.6% 16865 06-25-19
220 zapp 4.5% 16876 06-25-19
221 UninspiredUsername 4.5% 16878 06-25-19
222 Sonicsuperstar1 4.5% 16886 06-25-19
223 superiorsonic 4.4% 16891 06-25-19
224 gamefreak1292 4.4% 16899 06-25-19
225 Sora_yx 4.2% 16927 06-25-19
226 Chaos_Overlord 4.0% 16962 06-25-19
227 TakaRikka 4.0% 16974 06-25-19
228 Valfore 3.9% 16981 06-25-19
229 Dage4Aquatic 3.8% 17001 06-25-19
230 ShinigamiMachine 3.7% 17014 06-25-19
231 Regano1000 3.7% 17028 06-25-19
232 MK 3.6% 17048 06-25-19
233 Ace747 3.5% 17058 06-25-19
234 Jua Rever 3.3% 17087 06-25-19
235 HHNNBBHHN 3.1% 17126 06-25-19
236 Illidan 3.1% 17127 06-25-19
237 Brian_pso 3.1% 17130 06-25-19
238 Venick409 3.1% 17132 06-25-19
239 nman36 3.0% 17138 06-25-19
240 Sithwarrior26 3.0% 17139 06-25-19
241 ingx24 2.9% 17165 06-25-19
242 Egor305 2.9% 17167 06-25-19
243 TheChaosEmeraIds 2.9% 17170 06-25-19
244 SkyBon 2.8% 17180 06-25-19
245 Nickson98 2.8% 17182 06-25-19
246 FSSRandomvids 2.7% 17190 06-25-19
247 dekki1234 2.7% 17192 06-25-19
248 Fozer 2.7% 17198 06-25-19
249 sonic29887 2.6% 17208 06-25-19
250 Aiko 2.6% 17212 06-25-19
250 Colomb_30 2.6% 17212 06-25-19
252 TheUltraBlur 2.6% 17216 06-25-19
253 1stKirbyever 2.6% 17224 06-25-19
254 TimTH 2.5% 17239 06-25-19
255 Th4tN1nj4Turtl3 2.3% 17266 06-25-19
256 Cort_pso 2.3% 17272 06-25-19
257 Doom-9 2.3% 17278 06-25-19
258 ieatatsonic 2.2% 17284 06-25-19
259 Mariosonic15 2.2% 17288 06-25-19
260 MStitomix 2.1% 17301 06-25-19
261 HermitHelmet 2.1% 17308 06-25-19
262 SuperSonic71087 2.0% 17322 06-25-19
263 Got4n 2.0% 17327 06-25-19
264 Questionguy555 2.0% 17329 06-25-19
265 Artie 2.0% 17331 06-25-19
266 Jose_15 1.9% 17337 06-25-19
267 djmat 1.9% 17348 06-25-19
268 SuperSonicfan9595 1.8% 17355 06-25-19
269 sonicandamy Player Banned 1.7% 17371 06-25-19
270 LancexExWx 1.7% 17381 06-25-19
271 Paixii 1.7% 17384 06-25-19
272 son1cgu1tar 1.6% 17387 06-25-19
273 Heroes_Hater 1.6% 17394 06-25-19
274 arcfx1985 1.6% 17402 06-25-19
275 BallzeH 1.5% 17404 06-25-19
276 Mankster101 1.5% 17410 06-25-19
277 Jamixesa 1.5% 17412 06-25-19
278 BecauseWarAnvil 1.5% 17415 06-25-19
279 Shanekilz 1.4% 17422 06-25-19
280 Crydio 1.4% 17424 06-25-19
281 SpiritDragon1995 1.4% 17426 06-25-19
282 MarewBFN 1.3% 17443 06-25-19
282 stanski 1.3% 17443 06-25-19
284 ArthurVGCP 1.3% 17447 06-25-19
285 Sonique Hedgehog 1.3% 17448 06-25-19
286 Blue Infamy 1.2% 17459 06-25-19
287 p0ker 1.2% 17463 06-25-19
288 ErrortheCucco 1.2% 17470 06-25-19
289 Rikum22 1.1% 17473 06-25-19
290 Arthas 1.1% 17475 06-25-19
291 sonic1001 1.1% 17481 06-25-19
292 syco1098 1.1% 17488 06-25-19
293 AJSIV 1.1% 17490 06-25-19
293 WingedInsignia 1.1% 17490 06-25-19
295 Sonic the Hedgehod16 1.0% 17493 06-25-19
296 ASINISTERTACO 1.0% 17500 06-25-19
297 sonicfan9 1.0% 17505 06-25-19
298 BlackArmsShadow 0.9% 17514 06-25-19
299 themachoman202 0.9% 17516 06-25-19
300 shadowblast63 Player Banned 0.9% 17521 06-25-19
301 Fivavoa 0.9% 17525 06-25-19
302 Ben1502 0.8% 17526 06-25-19
302 MastaToken 0.8% 17526 06-25-19
304 Greham Adelphis 0.8% 17527 06-25-19
304 Mr. Jones 0.8% 17527 06-25-19
306 darkstarblaze 0.8% 17528 06-25-19
307 TommyeAsY 0.8% 17529 06-25-19
308 ptorflaxendrosis 0.8% 17534 06-25-19
309 FlandreScarlet9999vr 0.8% 17537 06-25-19
310 Gvozdevik 0.8% 17538 06-25-19
311 Zeldocto 0.8% 17540 06-25-19
312 Knuckles 0.8% 17541 06-25-19
313 BeeAwwb 0.7% 17545 06-25-19
314 KaM Mark MaK 0.7% 17547 06-25-19
315 ShadouZaHejjihoggu 0.7% 17551 06-25-19
316 Sogeking 0.7% 17557 06-25-19
317 Sonic The Star 0.7% 17559 06-25-19
318 darkersupershadic 0.7% 17560 06-25-19
319 Sonic62 0.6% 17563 06-25-19
320 Sarger001 0.6% 17566 06-25-19
321 dragondragon18 0.6% 17569 06-25-19
321 Grady219 0.6% 17569 06-25-19
321 SonicK100 0.6% 17569 06-25-19
324 Shadygamerfreak 0.6% 17570 06-25-19
325 Jawaah 0.6% 17573 06-25-19
326 Antek 0.6% 17577 06-25-19
327 SpinDashMaster 0.6% 17578 06-25-19
328 Klaus 0.5% 17579 06-25-19
329 SilverK 0.5% 17581 06-25-19
330 BioShadow 0.5% 17585 06-25-19
331 Videogamer123 0.5% 17592 06-25-19
332 oTaiIilLsS 0.4% 17603 06-25-19
333 isaihtb11 0.4% 17606 06-25-19
334 OhNoes! 0.4% 17607 06-25-19
335 Mad Andy 0.4% 17608 06-25-19
335 zaktu40 0.4% 17608 06-25-19
337 S-MS32X-S 0.4% 17611 06-25-19
338 gaara1234 0.4% 17612 06-25-19
339 gamed00d 0.3% 17617 06-25-19
340 Mister_Slick 0.3% 17623 06-25-19
341 Sonic06Fan 0.3% 17627 06-25-19
342 Rush Hero 0.3% 17628 06-25-19
343 ChaosNexuss 0.3% 17629 06-25-19
344 SonicMega167 0.2% 17634 06-25-19
345 Iwannabelink 0.2% 17635 06-25-19
346 sonknuck23 0.2% 17638 06-25-19
347 DanielTheFalcon 0.2% 17646 06-25-19
347 gamer1245 0.2% 17646 06-25-19
349 Burningskull123 0.1% 17653 06-25-19
350 Sonicontherun 0.1% 17664 06-25-19
351 Lil_Dude 0.1% 17666 06-25-19
352 antiwwe 0.0% 17670 06-25-19
353 Cbwade15 0.0% 17674 06-25-19
353 Genuine Hedgehog 0.0% 17674 06-25-19
355 Tyrouble 0.0% 17678 06-25-19
356 MegabombBlade 0.0% 17685 06-25-19
356 neji_hyuuga 0.0% 17685 06-25-19
356 Over 0.0% 17685 06-25-19
356 sdj6707 Player Banned 0.0% 17685 06-25-19
356 Tran Sonic Fan Player Banned 0.0% 17685 06-25-19

This page is using the New Data Table System. [FUTURE]

Game ID: 3 | Category ID: 10
Hits: 75,320 | Hits This Month: 327 | DB Calls: 21 | Mem Usage: 5.89 MB | Time: 0.14s | Printable

The Sonic Center v3.9
Copyright 2003-2011 by The Sonic Center Team.